Time;durP1;ratioP1;P1;durP2;ratioP2;P2;SDS_P1;SDS_P2;PMS_P1;PMS_P2;Temp;Humidity;BMP_temperature;BMP_pressure;BME280_temperature;BME280_humidity;BME280_pressure;Samples;Min_cycle;Max_cycle;Signal;HPM_P1;HPM_P2
2021/03/02 00:00:15;;;;;;;14.27;7.93;;;;;;;4.59;80.82;97275.22;1271893;23;20014;-65
2021/03/02 00:00:47;;;;;;;14.93;8.30;;;;;;;4.58;81.19;97275.44;1271933;23;20363;-65
2021/03/02 00:01:17;;;;;;;14.18;8.05;;;;;;;4.57;80.95;97273.81;1272094;23;20328;-64
2021/03/02 00:01:48;;;;;;;13.60;8.30;;;;;;;4.58;81.09;97275.44;1278443;23;20016;-65
2021/03/02 00:02:18;;;;;;;14.13;8.27;;;;;;;4.58;81.29;97273.59;1284263;23;20433;-64
2021/03/02 00:02:48;;;;;;;20.30;8.07;;;;;;;4.57;81.38;97277.28;1284173;23;20001;-65
2021/03/02 00:03:19;;;;;;;16.23;8.40;;;;;;;4.55;80.95;97279.28;1284216;23;19996;-65
2021/03/02 00:03:49;;;;;;;15.30;8.23;;;;;;;4.56;81.47;97277.47;1284290;23;19997;-62
2021/03/02 00:04:20;;;;;;;13.47;8.73;;;;;;;4.53;81.12;97280.53;1278094;23;19997;-64
2021/03/02 00:04:50;;;;;;;15.27;8.23;;;;;;;4.53;81.47;97276.03;1278071;23;20036;-65
2021/03/02 00:05:21;;;;;;;14.77;8.70;;;;;;;4.56;81.43;97282.78;1278061;23;20021;-65
2021/03/02 00:05:51;;;;;;;15.13;8.70;;;;;;;4.57;81.20;97279.09;1284131;23;20330;-65
2021/03/02 00:06:21;;;;;;;13.73;8.83;;;;;;;4.57;81.32;97279.09;1278014;23;20419;-64
2021/03/02 00:06:53;;;;;;;13.83;8.30;;;;;;;4.54;81.06;97276.84;1278188;23;20001;-65
2021/03/02 00:07:24;;;;;;;14.40;8.63;;;;;;;4.57;81.11;97281.75;1284310;23;19996;-64
2021/03/02 00:07:54;;;;;;;13.25;8.18;;;;;;;4.55;81.43;97284.59;1278383;23;20036;-64
2021/03/02 00:08:25;;;;;;;15.10;8.37;;;;;;;4.55;81.15;97279.28;1284275;23;19997;-64
2021/03/02 00:08:55;;;;;;;16.03;8.17;;;;;;;4.55;81.05;97276.63;1284327;23;20339;-64
2021/03/02 00:09:26;;;;;;;15.43;9.10;;;;;;;4.54;81.50;97282.16;1278086;23;20001;-65
2021/03/02 00:09:59;;;;;;;13.70;8.65;;;;;;;4.53;81.66;97278.69;1278160;23;20013;-65
2021/03/02 00:10:30;;;;;;;12.65;8.52;;;;;;;4.46;81.65;97282.34;1278600;23;20000;-65
2021/03/02 00:11:00;;;;;;;14.13;8.07;;;;;;;4.48;81.41;97272.34;1278812;23;20013;-65
2021/03/02 00:11:31;;;;;;;18.00;9.60;;;;;;;4.47;81.61;97279.47;1284054;23;20016;-65
2021/03/02 00:12:01;;;;;;;14.17;8.60;;;;;;;4.48;81.87;97283.75;1284432;23;20013;-65
2021/03/02 00:12:32;;;;;;;18.60;8.53;;;;;;;4.45;81.86;97284.16;1284925;23;19993;-65
2021/03/02 00:13:02;;;;;;;14.40;8.13;;;;;;;4.43;81.63;97280.91;1291144;23;20000;-63
2021/03/02 00:13:33;;;;;;;15.57;8.50;;;;;;;4.46;81.65;97282.34;1284909;23;20446;-64
2021/03/02 00:14:03;;;;;;;14.10;8.30;;;;;;;4.47;81.64;97283.97;1284768;23;20009;-64
2021/03/02 00:14:35;;;;;;;17.73;9.20;;;;;;;4.46;81.21;97277.88;1284887;23;19989;-63
2021/03/02 00:15:06;;;;;;;17.17;8.30;;;;;;;4.46;81.53;97277.03;1284756;23;20000;-63
2021/03/02 00:15:38;;;;;;;13.93;7.85;;;;;;;4.40;81.50;97276.00;1285113;23;20001;-63
2021/03/02 00:16:08;;;;;;;13.90;8.40;;;;;;;4.37;81.90;97282.50;1285116;23;20012;-63
2021/03/02 00:16:43;;;;;;;17.47;8.97;;;;;;;4.33;81.76;97275.97;1285186;23;20000;-63
2021/03/02 00:17:16;;;;;;;18.45;8.35;;;;;;;4.36;82.02;97285.38;1285089;23;20083;-64
2021/03/02 00:17:53;;;;;;;17.65;8.82;;;;;;;4.36;81.77;97280.06;1284923;23;20457;-63
2021/03/02 00:18:24;;;;;;;16.98;7.78;;;;;;;4.36;81.91;97280.06;1284361;23;20029;-63
2021/03/02 00:18:56;;;;;;;15.25;8.63;;;;;;;4.36;81.75;97282.72;1278481;23;20108;-65
2021/03/02 00:19:33;;;;;;;18.77;9.05;;;;;;;4.34;81.79;97274.94;1280627;23;20001;-64
2021/03/02 00:20:04;;;;;;;15.70;8.13;;;;;;;4.33;81.98;97277.81;1284961;23;20138;-64
2021/03/02 00:20:35;;;;;;;17.80;8.70;;;;;;;4.32;81.82;97271.69;1284524;23;20011;-64
2021/03/02 00:21:20;;;;;;;14.75;7.97;;;;;;;4.29;81.79;97273.91;1285107;23;19996;-64
2021/03/02 00:21:51;;;;;;;14.77;8.00;;;;;;;4.31;81.63;97277.19;1284727;23;20008;-65
2021/03/02 00:22:23;;;;;;;14.68;8.02;;;;;;;4.29;81.66;97266.78;1278374;23;20001;-65
2021/03/02 00:23:05;;;;;;;13.48;8.07;;;;;;;4.31;81.79;97272.72;1272238;23;20027;-64
2021/03/02 00:23:38;;;;;;;16.63;7.97;;;;;;;4.29;81.87;97276.56;1275339;23;20445;-64
2021/03/02 00:24:12;;;;;;;18.02;9.32;;;;;;;4.26;82.03;97279.63;1281921;23;20512;-65
2021/03/02 00:24:42;;;;;;;19.58;8.27;;;;;;;4.26;81.69;97280.44;1282445;23;20406;-65
2021/03/02 00:25:13;;;;;;;16.57;8.47;;;;;;;4.25;81.84;97278.81;1279125;23;19997;-65
2021/03/02 00:25:45;;;;;;;18.73;8.30;;;;;;;4.22;81.75;97284.50;1278822;23;19997;-68
2021/03/02 00:26:18;;;;;;;19.20;8.95;;;;;;;4.17;82.07;97276.34;1266977;23;20524;-65
2021/03/02 00:26:53;;;;;;;14.13;8.50;;;;;;;4.13;82.08;97272.44;1261752;23;20077;-65
2021/03/02 00:27:24;;;;;;;14.45;8.73;;;;;;;4.15;81.88;97284.47;1268560;23;20422;-65
2021/03/02 00:27:54;;;;;;;14.93;7.90;;;;;;;4.17;81.98;97278.97;1274336;23;20005;-65
2021/03/02 00:28:25;;;;;;;15.67;8.97;;;;;;;4.15;81.97;97281.03;1280692;23;20001;-65
2021/03/02 00:28:56;;;;;;;16.57;8.70;;;;;;;4.17;82.49;97273.69;1285533;23;20434;-65
2021/03/02 00:29:26;;;;;;;18.10;9.17;;;;;;;4.17;82.58;97285.09;1292057;23;20541;-64
2021/03/02 00:29:57;;;;;;;17.30;8.70;;;;;;;4.16;82.71;97280.81;1284750;23;20070;-64
2021/03/02 00:30:27;;;;;;;16.87;9.77;;;;;;;4.16;83.14;97274.69;1284743;23;20055;-64
2021/03/02 00:30:57;;;;;;;14.53;9.00;;;;;;;4.16;82.75;97282.66;1278603;23;20170;-64
2021/03/02 00:31:29;;;;;;;16.93;10.07;;;;;;;4.14;82.73;97282.81;1278628;23;20443;-64
2021/03/02 00:32:00;;;;;;;15.80;8.90;;;;;;;4.17;83.02;97285.09;1272297;23;20001;-64
2021/03/02 00:32:30;;;;;;;18.10;9.90;;;;;;;4.20;82.77;97281.25;1272136;23;19998;-64
2021/03/02 00:33:01;;;;;;;14.20;9.73;;;;;;;4.23;82.62;97277.38;1272715;23;20024;-64
2021/03/02 00:33:31;;;;;;;18.47;9.83;;;;;;;4.21;83.29;97287.34;1278934;23;20075;-64
2021/03/02 00:34:02;;;;;;;15.63;9.40;;;;;;;4.20;83.29;97277.75;1284634;23;20004;-64
2021/03/02 00:34:33;;;;;;;12.98;9.07;;;;;;;4.22;82.85;97288.97;1284691;23;20000;-64
2021/03/02 00:35:05;;;;;;;17.07;10.13;;;;;;;4.22;83.01;97281.84;1284702;23;20000;-64
2021/03/02 00:35:35;;;;;;;16.73;10.52;;;;;;;4.22;83.32;97284.50;1284660;23;20509;-64
2021/03/02 00:36:06;;;;;;;17.13;9.53;;;;;;;4.20;83.58;97285.69;1284509;23;20001;-64
2021/03/02 00:36:36;;;;;;;17.07;10.13;;;;;;;4.21;83.07;97287.34;1284728;23;20530;-64
2021/03/02 00:37:07;;;;;;;14.23;9.67;;;;;;;4.20;83.06;97285.69;1284625;23;20000;-64
2021/03/02 00:37:37;;;;;;;13.10;9.57;;;;;;;4.23;83.42;97282.66;1278321;23;20012;-65
2021/03/02 00:38:08;;;;;;;14.93;9.47;;;;;;;4.24;83.10;97282.44;1272189;23;20370;-64
2021/03/02 00:38:38;;;;;;;17.40;10.27;;;;;;;4.22;83.28;97294.25;1272423;23;20441;-64
2021/03/02 00:39:08;;;;;;;13.50;9.00;;;;;;;4.23;83.26;97285.31;1278483;23;20001;-64
2021/03/02 00:39:39;;;;;;;16.53;9.67;;;;;;;4.23;83.28;97285.31;1284651;23;20012;-64
2021/03/02 00:40:10;;;;;;;19.47;10.07;;;;;;;4.25;83.49;97288.56;1285047;23;20000;-64
2021/03/02 00:40:40;;;;;;;16.53;9.63;;;;;;;4.24;83.31;97285.09;1284911;23;20055;-63
2021/03/02 00:41:11;;;;;;;17.90;10.67;;;;;;;4.27;82.92;97286.56;1284960;23;20019;-64
2021/03/02 00:41:42;;;;;;;17.27;9.73;;;;;;;4.27;83.20;97282.06;1284930;23;20062;-63
2021/03/02 00:42:12;;;;;;;21.08;9.80;;;;;;;4.29;82.91;97281.84;1284893;23;19997;-64
2021/03/02 00:42:42;;;;;;;16.13;10.00;;;;;;;4.25;83.29;97283.25;1284970;23;20000;-63
2021/03/02 00:43:13;;;;;;;15.23;9.43;;;;;;;4.26;83.17;97295.50;1285166;23;20008;-63
2021/03/02 00:43:43;;;;;;;18.23;9.87;;;;;;;4.25;83.58;97291.22;1284946;23;20008;-63
2021/03/02 00:44:14;;;;;;;18.20;10.20;;;;;;;4.24;83.50;97290.38;1284944;23;20004;-63
2021/03/02 00:44:44;;;;;;;19.90;10.17;;;;;;;4.24;83.65;97292.22;1284982;23;20031;-64
2021/03/02 00:45:15;;;;;;;17.60;10.00;;;;;;;4.23;83.39;97288.75;1285018;23;19997;-63
2021/03/02 00:45:45;;;;;;;17.20;9.70;;;;;;;4.23;83.44;97285.31;1284958;23;19997;-65
2021/03/02 00:46:16;;;;;;;17.80;10.00;;;;;;;4.19;83.58;97282.22;1285016;23;20006;-63
2021/03/02 00:46:46;;;;;;;17.63;9.60;;;;;;;4.20;83.57;97286.53;1285098;23;20013;-63
2021/03/02 00:47:16;;;;;;;16.13;10.13;;;;;;;4.23;83.83;97287.94;1285074;23;20050;-63
2021/03/02 00:47:51;;;;;;;15.03;9.77;;;;;;;4.20;83.88;97280.41;1285056;23;20004;-63
2021/03/02 00:48:21;;;;;;;18.15;10.65;;;;;;;4.21;83.38;97279.41;1285002;23;20365;-63
2021/03/02 00:48:52;;;;;;;18.07;10.30;;;;;;;4.16;83.88;97272.88;1290822;23;19996;-63
2021/03/02 00:49:22;;;;;;;16.43;10.27;;;;;;;4.18;83.86;97275.31;1291018;23;20000;-63
2021/03/02 00:49:53;;;;;;;16.63;10.00;;;;;;;4.17;83.72;97285.09;1290804;23;20000;-63
2021/03/02 00:50:24;;;;;;;17.27;10.77;;;;;;;4.18;84.06;97283.25;1290673;23;20008;-64
2021/03/02 00:50:54;;;;;;;18.17;10.23;;;;;;;4.20;83.90;97285.69;1284964;23;20004;-64
2021/03/02 00:51:25;;;;;;;15.60;10.30;;;;;;;4.17;83.86;97290.38;1284682;23;20063;-64
2021/03/02 00:51:55;;;;;;;14.60;9.67;;;;;;;4.16;83.80;97286.09;1284685;23;20035;-64
2021/03/02 00:52:25;;;;;;;17.50;10.10;;;;;;;4.15;84.18;97278.38;1284684;23;20008;-64
2021/03/02 00:52:56;;;;;;;17.43;10.40;;;;;;;4.13;84.26;97277.72;1284672;23;20001;-64
2021/03/02 00:53:27;;;;;;;17.37;10.73;;;;;;;4.15;84.40;97278.38;1284826;23;20001;-64
2021/03/02 00:53:57;;;;;;;15.95;10.15;;;;;;;4.12;84.34;97278.75;1284946;23;20008;-64
2021/03/02 00:54:28;;;;;;;19.37;11.17;;;;;;;4.11;84.52;97277.94;1284989;23;20000;-64
2021/03/02 00:54:58;;;;;;;16.13;10.70;;;;;;;4.12;84.59;97276.09;1284936;23;20000;-64
2021/03/02 00:55:29;;;;;;;17.53;10.03;;;;;;;4.11;84.56;97272.66;1284880;23;19993;-64
2021/03/02 00:55:59;;;;;;;17.50;10.83;;;;;;;4.10;84.55;97276.31;1284984;23;20333;-64
2021/03/02 00:56:30;;;;;;;20.90;11.07;;;;;;;4.10;84.29;97276.31;1284817;23;20004;-64
2021/03/02 00:57:00;;;;;;;16.57;10.83;;;;;;;4.11;84.52;97277.94;1284890;23;20020;-64
2021/03/02 00:57:31;;;;;;;16.70;10.90;;;;;;;4.08;84.74;97280.16;1285031;23;20008;-64
2021/03/02 00:58:01;;;;;;;18.20;11.13;;;;;;;4.03;84.60;97275.44;1284933;23;20003;-64
2021/03/02 00:58:31;;;;;;;19.77;11.67;;;;;;;4.05;84.53;97276.09;1284873;23;19992;-64
2021/03/02 00:59:02;;;;;;;18.53;11.17;;;;;;;4.04;84.71;97270.97;1284908;23;19992;-64
2021/03/02 00:59:32;;;;;;;16.73;11.10;;;;;;;4.06;84.81;97276.91;1285043;23;20005;-64
2021/03/02 01:00:04;;;;;;;20.50;11.10;;;;;;;4.04;85.29;97273.63;1284968;23;20055;-64
2021/03/02 01:00:34;;;;;;;18.45;11.18;;;;;;;3.99;84.99;97274.22;1285041;23;19996;-64
2021/03/02 01:01:04;;;;;;;15.93;10.70;;;;;;;3.98;85.14;97269.94;1284827;23;20349;-64
2021/03/02 01:01:35;;;;;;;17.27;11.10;;;;;;;3.98;85.25;97272.59;1285063;23;20005;-64
2021/03/02 01:02:05;;;;;;;17.60;10.43;;;;;;;3.97;85.19;97275.44;1284864;23;20000;-64
2021/03/02 01:02:36;;;;;;;18.37;11.30;;;;;;;3.95;85.60;97270.34;1284734;23;20009;-64
2021/03/02 01:03:07;;;;;;;16.50;10.85;;;;;;;3.94;85.38;97273.97;1284933;23;20001;-64
2021/03/02 01:03:37;;;;;;;18.97;10.90;;;;;;;3.95;85.23;97273.00;1285023;23;20073;-64
2021/03/02 01:04:07;;;;;;;18.13;11.20;;;;;;;3.93;85.76;97269.72;1285049;23;20199;-64
2021/03/02 01:04:38;;;;;;;16.97;11.17;;;;;;;3.92;85.67;97274.19;1284995;23;20446;-64
2021/03/02 01:05:10;;;;;;;17.87;11.50;;;;;;;3.89;86.09;97276.44;1284910;23;20334;-63
2021/03/02 01:05:40;;;;;;;18.48;11.52;;;;;;;3.88;86.11;97280.88;1284803;23;20004;-64
2021/03/02 01:06:10;;;;;;;18.10;11.47;;;;;;;3.87;86.07;97268.66;1284922;23;20468;-63
2021/03/02 01:06:41;;;;;;;21.70;11.10;;;;;;;3.87;85.65;97276.59;1284937;23;20020;-64
2021/03/02 01:07:11;;;;;;;20.33;12.13;;;;;;;3.89;86.05;97268.50;1284836;23;20063;-64
2021/03/02 01:07:42;;;;;;;16.37;11.00;;;;;;;3.88;86.12;97269.47;1284904;23;20453;-64
2021/03/02 01:08:12;;;;;;;19.10;12.03;;;;;;;3.87;85.96;97281.91;1284917;23;20007;-64
2021/03/02 01:08:43;;;;;;;23.97;11.03;;;;;;;3.87;86.14;97276.59;1285069;23;20007;-64
2021/03/02 01:09:13;;;;;;;18.83;11.37;;;;;;;3.88;86.25;97274.78;1285013;23;20440;-64
2021/03/02 01:09:43;;;;;;;21.07;11.80;;;;;;;3.88;86.20;97270.28;1285057;23;20007;-64
2021/03/02 01:10:14;;;;;;;18.63;10.67;;;;;;;3.88;85.89;97274.78;1284973;23;20004;-64
2021/03/02 01:10:44;;;;;;;16.60;10.90;;;;;;;3.87;86.07;97265.22;1285029;23;20072;-64
2021/03/02 01:11:15;;;;;;;15.70;11.40;;;;;;;3.92;85.56;97276.03;1284824;23;20003;-64
2021/03/02 01:11:47;;;;;;;18.63;11.97;;;;;;;3.88;86.37;97272.13;1284998;23;20011;-64
2021/03/02 01:12:17;;;;;;;20.02;12.27;;;;;;;3.88;86.07;97272.13;1284925;23;19997;-64
2021/03/02 01:12:48;;;;;;;17.80;11.77;;;;;;;3.89;86.20;97265.84;1284995;23;19997;-64
2021/03/02 01:13:18;;;;;;;21.60;12.20;;;;;;;3.87;86.08;97273.97;1284786;23;20055;-64
2021/03/02 01:13:49;;;;;;;20.07;11.90;;;;;;;3.89;86.33;97273.78;1285006;23;20008;-64
2021/03/02 01:14:19;;;;;;;22.67;12.38;;;;;;;3.88;86.03;97274.78;1284970;23;20004;-64
2021/03/02 01:14:50;;;;;;;19.13;12.20;;;;;;;3.84;86.70;97268.25;1290586;23;19992;-64
2021/03/02 01:15:20;;;;;;;19.67;11.63;;;;;;;3.87;86.71;97267.84;1290884;23;19996;-64
2021/03/02 01:15:51;;;;;;;20.37;12.50;;;;;;;3.87;86.44;97273.16;1290853;23;19996;-64
2021/03/02 01:16:21;;;;;;;19.93;12.33;;;;;;;3.86;86.30;97271.53;1290829;23;20000;-64
2021/03/02 01:16:51;;;;;;;21.57;12.43;;;;;;;3.83;86.56;97261.31;1284666;23;20001;-66
2021/03/02 01:17:22;;;;;;;18.63;12.97;;;;;;;3.82;86.53;97272.91;1278337;23;20318;-64
2021/03/02 01:17:52;;;;;;;25.00;11.93;;;;;;;3.84;86.43;97268.25;1278454;23;20445;-63
2021/03/02 01:18:23;;;;;;;17.97;12.37;;;;;;;3.82;86.52;97270.28;1278512;23;20063;-64
2021/03/02 01:18:53;;;;;;;25.97;13.30;;;;;;;3.82;87.14;97273.72;1284690;23;20504;-64
2021/03/02 01:19:24;;;;;;;20.97;12.63;;;;;;;3.82;86.84;97270.28;1284922;23;20043;-64
2021/03/02 01:19:54;;;;;;;21.80;12.97;;;;;;;3.82;86.66;97271.09;1284701;23;20490;-64
2021/03/02 01:20:24;;;;;;;19.27;12.80;;;;;;;3.82;86.54;97268.44;1284869;23;20003;-64
2021/03/02 01:20:55;;;;;;;20.03;12.80;;;;;;;3.80;87.05;97269.66;1284965;23;20001;-64
2021/03/02 01:21:25;;;;;;;21.33;13.53;;;;;;;3.80;86.88;97269.66;1285017;23;20042;-64
2021/03/02 01:21:56;;;;;;;22.00;13.73;;;;;;;3.80;87.00;97280.25;1284831;23;20054;-64
2021/03/02 01:22:26;;;;;;;21.17;12.67;;;;;;;3.79;87.14;97263.56;1284451;23;20381;-64
2021/03/02 01:22:56;;;;;;;20.63;13.20;;;;;;;3.82;87.06;97276.38;1284569;23;19997;-64
2021/03/02 01:23:27;;;;;;;24.07;12.67;;;;;;;3.80;86.70;97270.47;1278313;23;19993;-65
2021/03/02 01:23:57;;;;;;;21.63;13.43;;;;;;;3.80;87.10;97270.47;1278277;23;20051;-64
2021/03/02 01:24:28;;;;;;;27.43;13.83;;;;;;;3.75;86.97;97264.16;1284469;23;20043;-64
2021/03/02 01:24:58;;;;;;;21.80;13.13;;;;;;;3.74;87.47;97273.91;1284650;23;20019;-64
2021/03/02 01:25:28;;;;;;;21.90;13.73;;;;;;;3.73;87.21;97272.25;1290933;23;20050;-64
2021/03/02 01:25:59;;;;;;;21.83;13.53;;;;;;;3.73;87.12;97261.69;1290873;23;20004;-65
2021/03/02 01:26:29;;;;;;;22.23;13.47;;;;;;;3.75;86.98;97267.59;1290932;23;20298;-65
2021/03/02 01:27:00;;;;;;;21.57;12.33;;;;;;;3.73;87.23;97263.50;1290814;23;20490;-65
2021/03/02 01:27:30;;;;;;;23.43;14.77;;;;;;;3.72;87.24;97265.34;1290739;23;20314;-65
2021/03/02 01:28:00;;;;;;;22.83;14.60;;;;;;;3.72;87.25;97264.53;1291215;23;20425;-65
2021/03/02 01:28:31;;;;;;;20.80;13.30;;;;;;;3.72;87.69;97264.53;1292512;23;20056;-64
2021/03/02 01:29:01;;;;;;;21.47;13.73;;;;;;;3.69;87.73;97263.09;1287034;23;20007;-64
2021/03/02 01:29:32;;;;;;;23.80;14.57;;;;;;;3.67;88.07;97262.47;1285954;23;20008;-64
2021/03/02 01:30:08;;;;;;;20.93;13.70;;;;;;;3.63;87.72;97264.69;1284854;23;20004;-65
2021/03/02 01:30:38;;;;;;;19.70;12.57;;;;;;;3.64;87.77;97263.69;1284698;23;19999;-65
2021/03/02 01:31:08;;;;;;;20.23;13.33;;;;;;;3.64;88.27;97268.97;1285035;23;20437;-66
2021/03/02 01:31:39;;;;;;;23.77;14.97;;;;;;;3.62;88.30;97262.22;1284762;23;20330;-65
2021/03/02 01:32:09;;;;;;;24.13;14.13;;;;;;;3.61;88.08;97261.41;1284934;23;20472;-65
2021/03/02 01:32:40;;;;;;;21.30;14.00;;;;;;;3.63;88.39;97267.34;1284743;23;20015;-65
2021/03/02 01:33:10;;;;;;;23.97;14.30;;;;;;;3.63;87.95;97266.50;1284802;23;20014;-65
2021/03/02 01:33:41;;;;;;;24.07;13.87;;;;;;;3.60;88.55;97266.91;1284912;23;20335;-65
2021/03/02 01:34:11;;;;;;;23.90;15.43;;;;;;;3.61;88.49;97272.00;1284931;23;20007;-65
2021/03/02 01:34:41;;;;;;;20.37;13.50;;;;;;;3.60;88.43;97270.38;1284795;23;20000;-64
2021/03/02 01:35:12;;;;;;;21.60;14.57;;;;;;;3.61;88.09;97272.00;1284721;23;20008;-65
2021/03/02 01:35:42;;;;;;;21.87;14.23;;;;;;;3.57;88.31;97260.16;1284891;23;20326;-65
2021/03/02 01:36:13;;;;;;;22.33;14.47;;;;;;;3.56;88.35;97266.47;1285024;23;20415;-63
2021/03/02 01:36:43;;;;;;;20.60;13.47;;;;;;;3.53;88.81;97266.88;1284818;23;20480;-64
2021/03/02 01:37:14;;;;;;;21.63;14.37;;;;;;;3.53;88.72;97266.88;1284681;23;20027;-64
2021/03/02 01:37:44;;;;;;;23.30;14.73;;;;;;;3.53;88.55;97256.31;1284691;23;20050;-63
2021/03/02 01:38:15;;;;;;;22.00;13.57;;;;;;;3.52;88.83;97272.34;1284851;23;20003;-64
2021/03/02 01:38:45;;;;;;;24.27;14.93;;;;;;;3.50;88.39;97267.25;1284875;23;20052;-64
2021/03/02 01:39:16;;;;;;;24.63;14.70;;;;;;;3.54;88.81;97270.34;1284864;23;20008;-64
2021/03/02 01:39:46;;;;;;;22.33;14.23;;;;;;;3.53;88.95;97269.53;1284809;23;20519;-64
2021/03/02 01:40:17;;;;;;;24.83;14.50;;;;;;;3.52;88.76;97265.22;1284837;23;19996;-65
2021/03/02 01:40:47;;;;;;;21.20;14.53;;;;;;;3.52;88.88;97267.03;1284934;23;20024;-65
2021/03/02 01:41:19;;;;;;;21.37;14.53;;;;;;;3.53;88.91;97266.03;1284699;23;19992;-65
2021/03/02 01:41:50;;;;;;;22.60;13.65;;;;;;;3.51;88.82;97265.41;1284772;23;19996;-65
2021/03/02 01:42:20;;;;;;;22.98;14.43;;;;;;;3.51;88.49;97266.22;1284878;23;20008;-65
2021/03/02 01:42:50;;;;;;;24.13;14.57;;;;;;;3.48;88.81;97264.00;1284868;23;20004;-65
2021/03/02 01:43:21;;;;;;;23.27;14.63;;;;;;;3.49;88.51;97262.16;1284815;23;20005;-65
2021/03/02 01:43:51;;;;;;;19.30;14.43;;;;;;;3.44;89.02;97272.50;1284913;23;19996;-65
2021/03/02 01:44:22;;;;;;;24.53;14.73;;;;;;;3.42;89.27;97267.38;1284935;23;20000;-65
2021/03/02 01:44:53;;;;;;;23.08;15.55;;;;;;;3.41;89.21;97264.94;1284755;23;20001;-65
2021/03/02 01:45:23;;;;;;;22.20;14.63;;;;;;;3.41;89.41;97262.31;1284869;23;19996;-64
2021/03/02 01:45:53;;;;;;;22.37;14.83;;;;;;;3.43;89.50;97269.03;1284761;23;19993;-64
2021/03/02 01:46:24;;;;;;;22.67;14.60;;;;;;;3.43;89.42;97266.41;1284798;23;20000;-64
2021/03/02 01:46:54;;;;;;;22.80;14.77;;;;;;;3.42;89.35;97259.47;1284863;23;19992;-64
2021/03/02 01:47:25;;;;;;;22.37;15.17;;;;;;;3.42;89.32;97264.75;1284986;23;20007;-64
2021/03/02 01:47:55;;;;;;;22.43;14.57;;;;;;;3.42;89.20;97272.69;1284819;23;19993;-64
2021/03/02 01:48:26;;;;;;;26.03;15.40;;;;;;;3.40;89.77;97266.78;1284715;23;20295;-64
2021/03/02 01:48:56;;;;;;;23.07;15.33;;;;;;;3.40;89.51;97269.41;1290771;23;20433;-64
2021/03/02 01:49:26;;;;;;;25.73;15.40;;;;;;;3.41;89.50;97264.94;1284467;23;19996;-64
2021/03/02 01:49:57;;;;;;;27.03;15.50;;;;;;;3.42;89.22;97269.22;1284415;23;19992;-63
2021/03/02 01:50:27;;;;;;;23.60;16.23;;;;;;;3.44;88.96;97270.69;1278181;23;19997;-64
2021/03/02 01:50:58;;;;;;;21.83;14.97;;;;;;;3.45;89.52;97268.84;1278254;23;19997;-65
2021/03/02 01:51:28;;;;;;;22.07;14.60;;;;;;;3.43;89.32;97266.41;1284498;23;19997;-64
2021/03/02 01:51:58;;;;;;;21.67;15.00;;;;;;;3.41;89.44;97267.59;1284481;23;20240;-64
2021/03/02 01:52:29;;;;;;;24.57;15.67;;;;;;;3.40;89.90;97274.72;1284731;23;19996;-65
2021/03/02 01:52:59;;;;;;;27.60;15.27;;;;;;;3.40;89.49;97277.34;1284770;23;20055;-64
2021/03/02 01:53:30;;;;;;;25.03;15.40;;;;;;;3.42;89.33;97269.22;1284684;23;20000;-65
2021/03/02 01:54:00;;;;;;;24.73;16.20;;;;;;;3.37;89.37;97275.06;1284711;23;20080;-65
2021/03/02 01:54:31;;;;;;;24.37;15.07;;;;;;;3.37;89.79;97273.25;1284399;23;20028;-65
2021/03/02 01:55:01;;;;;;;27.90;16.80;;;;;;;3.35;89.74;97270.00;1278174;23;20001;-65
2021/03/02 01:55:32;;;;;;;25.23;14.53;;;;;;;3.35;89.79;97272.63;1278252;23;20028;-65
2021/03/02 01:56:02;;;;;;;25.83;16.03;;;;;;;3.38;90.11;97276.75;1278504;23;20008;-65
2021/03/02 01:56:33;;;;;;;26.17;15.30;;;;;;;3.39;89.92;97273.06;1284227;23;20091;-65
2021/03/02 01:57:04;;;;;;;22.73;14.90;;;;;;;3.38;89.72;97276.75;1284812;23;20007;-65
2021/03/02 01:57:34;;;;;;;23.10;15.70;;;;;;;3.42;89.81;97280.59;1284618;23;20004;-65
2021/03/02 01:58:05;;;;;;;23.27;14.90;;;;;;;3.38;89.48;97277.56;1284763;23;20322;-65
2021/03/02 01:58:35;;;;;;;25.43;15.77;;;;;;;3.40;90.02;97280.00;1284880;23;20000;-65
2021/03/02 01:59:05;;;;;;;24.80;15.67;;;;;;;3.44;89.75;97278.59;1284868;23;20299;-65
2021/03/02 01:59:36;;;;;;;21.67;15.43;;;;;;;3.40;89.79;97269.41;1284785;23;20001;-64
2021/03/02 02:00:21;;;;;;;26.67;16.03;;;;;;;3.44;89.58;97277.78;1284777;23;20417;-64
2021/03/02 02:00:56;;;;;;;22.77;15.50;;;;;;;3.44;89.16;97281.25;1284870;23;20081;-64
2021/03/02 02:01:27;;;;;;;26.00;16.02;;;;;;;3.43;89.66;97278.78;1284784;23;20506;-63
2021/03/02 02:01:57;;;;;;;24.20;15.77;;;;;;;3.42;90.00;97272.69;1284713;23;20078;-64
2021/03/02 02:02:31;;;;;;;23.47;15.70;;;;;;;3.44;89.86;97273.31;1284366;23;20027;-63
2021/03/02 02:03:09;;;;;;;23.30;15.15;;;;;;;3.42;89.51;97275.31;1278243;23;20419;-63
2021/03/02 02:03:53;;;;;;;26.08;17.17;;;;;;;3.40;89.47;97277.34;1278258;23;20361;-64
2021/03/02 02:04:25;;;;;;;27.13;16.60;;;;;;;3.41;89.84;97275.53;1278315;23;20076;-64
2021/03/02 02:04:56;;;;;;;24.30;16.40;;;;;;;3.40;89.46;97274.72;1283361;23;20001;-64
2021/03/02 02:05:27;;;;;;;24.10;16.70;;;;;;;3.39;90.08;97268.59;1278044;23;20024;-63
2021/03/02 02:05:59;;;;;;;24.38;15.82;;;;;;;3.38;89.93;97276.75;1277950;23;20056;-64
2021/03/02 02:06:42;;;;;;;25.45;16.13;;;;;;;3.38;90.05;97276.75;1278779;23;20020;-63
2021/03/02 02:07:15;;;;;;;28.30;17.00;;;;;;;3.34;89.84;97273.66;1287639;23;20405;-64
2021/03/02 02:07:50;;;;;;;30.05;17.35;;;;;;;3.34;89.90;97278.13;1284328;23;20003;-64
2021/03/02 02:08:22;;;;;;;24.38;16.27;;;;;;;3.32;90.50;97278.28;1274104;23;20003;-64
2021/03/02 02:09:01;;;;;;;26.58;16.73;;;;;;;3.31;90.12;97279.31;1272010;23;20084;-64
2021/03/02 02:10:04;;;;;;;22.63;15.90;;;;;;;3.33;90.33;97279.16;1275262;23;20104;-64
2021/03/02 02:10:52;;;;;;;30.23;17.25;;;;;;;3.33;90.21;97272.03;1278050;23;20021;-63
2021/03/02 02:11:41;;;;;;;29.88;15.68;;;;;;;3.29;90.16;97272.59;1278238;23;20084;-65
2021/03/02 02:12:33;;;;;;;26.83;16.75;;;;;;;3.33;89.98;97279.16;1282706;23;19996;-64
2021/03/02 02:13:09;;;;;;;24.70;15.82;;;;;;;3.34;89.77;97278.13;1284600;23;19996;-65
2021/03/02 02:13:47;;;;;;;26.08;17.25;;;;;;;3.34;89.96;97276.28;1284236;23;20004;-64
2021/03/02 02:14:49;;;;;;;27.10;16.67;;;;;;;3.36;89.57;97278.75;1278150;23;20004;-64
2021/03/02 02:15:32;;;;;;;28.30;16.83;;;;;;;3.31;90.41;97276.66;1280860;23;20047;-64
2021/03/02 02:16:06;;;;;;;26.75;15.88;;;;;;;3.32;90.16;97277.47;1284397;23;20099;-64
2021/03/02 02:16:36;;;;;;;26.60;17.05;;;;;;;3.32;89.77;97278.28;1278095;23;20028;-65
2021/03/02 02:17:11;;;;;;;30.00;17.93;;;;;;;3.30;90.19;97274.22;1271962;23;19998;-64
2021/03/02 02:17:50;;;;;;;25.00;17.13;;;;;;;3.29;89.84;97270.78;1259949;23;20420;-64
2021/03/02 02:18:23;;;;;;;26.35;16.42;;;;;;;3.28;90.69;97276.25;1262282;23;19998;-64
2021/03/02 02:18:53;;;;;;;33.33;17.08;;;;;;;3.29;90.19;97283.97;1263095;23;20129;-64
2021/03/02 02:19:39;;;;;;;27.53;17.50;;;;;;;3.27;90.63;97275.41;1270891;23;20332;-64
2021/03/02 02:20:11;;;;;;;27.00;17.20;;;;;;;3.23;90.82;97279.47;1276056;23;20001;-64
2021/03/02 02:20:49;;;;;;;27.60;17.60;;;;;;;3.21;91.00;97270.91;1269216;23;20002;-64
2021/03/02 02:21:44;;;;;;;25.10;16.02;;;;;;;3.17;90.60;97276.75;1272063;23;20001;-64
2021/03/02 02:22:20;;;;;;;25.58;16.95;;;;;;;3.19;91.06;97272.94;1272921;23;19997;-65
2021/03/02 02:23:09;;;;;;;27.40;17.40;;;;;;;3.17;91.22;97276.75;1284186;23;20079;-65
2021/03/02 02:23:46;;;;;;;29.75;17.20;;;;;;;3.20;91.15;97279.84;1284295;23;20005;-65
2021/03/02 02:24:23;;;;;;;35.47;17.48;;;;;;;3.16;91.37;97272.50;1284361;23;19996;-65
2021/03/02 02:25:15;;;;;;;25.83;17.13;;;;;;;3.15;90.85;97270.88;1278038;23;20083;-65
2021/03/02 02:26:22;;;;;;;25.85;16.92;;;;;;;3.16;90.77;97269.84;1278129;23;20375;-65
2021/03/02 02:26:57;;;;;;;25.63;17.90;;;;;;;3.15;91.01;97273.50;1284231;23;20001;-65
2021/03/02 02:27:27;;;;;;;26.30;17.35;;;;;;;3.15;90.83;97268.22;1284394;23;20004;-65
2021/03/02 02:27:58;;;;;;;25.47;17.03;;;;;;;3.18;90.72;97270.50;1277795;23;20009;-65
2021/03/02 02:28:29;;;;;;;24.47;17.23;;;;;;;3.17;91.00;97274.13;1278107;23;20001;-65
2021/03/02 02:29:00;;;;;;;27.42;17.42;;;;;;;3.13;91.50;97271.88;1272458;23;20013;-65
2021/03/02 02:29:31;;;;;;;26.45;17.08;;;;;;;3.15;91.35;97270.88;1272351;23;20002;-65
2021/03/02 02:30:02;;;;;;;26.40;18.20;;;;;;;3.15;90.96;97271.69;1278090;23;20001;-64